KLBO

Floyd W Jones Lebanon Airport

Lebanon, Missouri, USA
METAR KLBO 230955Z AUTO 28005KT 10SM CLR 10/06 A3024 RMK AO2
Observed Flight Rules
Oct-23 @ 09:55 UTC (11 minutes ago) Visual Flight Rules
Wind Visibility Clouds
280° at 5 knots 10 miles
  • Clear skies
Temperatures Readings
Current 10°C / 50°F
Dewpoint 6°C / 43°F
Humidity 76%
Altimeter 30.24" Hg
Pressure 1024 hPa
Elevation 403
METAR KLBO 230955Z AUTO 28005KT 10SM CLR 10/06 A3024 RMK AO2
Observed Flight Rules
Oct-23 @ 09:55 UTC
(11 minutes ago)
VFR
Wind Visibility
280° at 5 knots 10 miles
Clouds
  • Clear skies
Temperature Dewpoint
10°C / 50°F 6°C / 43°F
Humidity Altimeter Pressure
76% 30.24" Hg 1024 hPa